createdAt,value
2018-11-04T00:00:05.119Z,998.25
2018-11-04T00:01:05.106Z,998.23
2018-11-04T00:02:05.098Z,998.23
2018-11-04T00:03:05.088Z,998.27
2018-11-04T00:04:05.086Z,998.23
2018-11-04T00:05:05.072Z,998.28
2018-11-04T00:06:05.061Z,998.32
2018-11-04T00:07:05.048Z,998.27
2018-11-04T00:08:05.044Z,998.28
2018-11-04T00:09:05.035Z,998.27
2018-11-04T00:10:05.026Z,998.27
2018-11-04T00:11:05.009Z,998.26
2018-11-04T00:12:05.007Z,998.23
2018-11-04T00:13:05.009Z,998.25
2018-11-04T00:14:04.993Z,998.24
2018-11-04T00:15:04.978Z,998.24
2018-11-04T00:16:04.968Z,998.23
2018-11-04T00:17:04.961Z,998.16
2018-11-04T00:18:04.946Z,998.22
2018-11-04T00:19:04.987Z,998.18
2018-11-04T00:20:04.938Z,998.18
2018-11-04T00:21:04.922Z,998.17
2018-11-04T00:22:04.913Z,998.21
2018-11-04T00:23:04.898Z,998.15
2018-11-04T00:24:04.954Z,998.19
2018-11-04T00:25:04.889Z,998.19
2018-11-04T00:26:04.876Z,998.15
2018-11-04T00:27:04.872Z,998.10
2018-11-04T00:28:04.861Z,998.09
2018-11-04T00:29:04.847Z,998.10
2018-11-04T00:30:04.839Z,998.08
2018-11-04T00:31:04.830Z,998.09
2018-11-04T00:32:04.819Z,998.06
2018-11-04T00:33:04.820Z,998.04
2018-11-04T00:34:04.800Z,998.04
2018-11-04T00:35:04.797Z,998.01
2018-11-04T00:36:04.780Z,997.98
2018-11-04T00:37:04.770Z,997.98
2018-11-04T00:38:04.759Z,998.00
2018-11-04T00:39:04.747Z,997.95
2018-11-04T00:40:04.747Z,997.96
2018-11-04T00:41:04.734Z,997.96
2018-11-04T00:42:04.727Z,997.95
2018-11-04T00:43:04.716Z,997.95
2018-11-04T00:44:04.705Z,997.95
2018-11-04T00:45:04.738Z,997.95
2018-11-04T00:46:04.694Z,997.96
2018-11-04T00:47:04.678Z,997.89
2018-11-04T00:48:04.671Z,997.93
2018-11-04T00:49:04.658Z,997.92
2018-11-04T00:50:04.649Z,997.93
2018-11-04T00:51:04.645Z,997.94
2018-11-04T00:52:04.632Z,997.89
2018-11-04T00:53:04.626Z,997.89
2018-11-04T00:54:04.608Z,997.93
2018-11-04T00:55:04.603Z,997.88
2018-11-04T00:56:04.593Z,997.89
2018-11-04T00:57:04.590Z,997.85
2018-11-04T00:58:04.580Z,997.80
2018-11-04T00:59:04.566Z,997.77
2018-11-04T01:00:04.554Z,997.79
2018-11-04T01:01:04.544Z,997.77
2018-11-04T01:02:04.535Z,997.77
2018-11-04T01:03:04.523Z,997.79
2018-11-04T01:04:04.518Z,997.77
2018-11-04T01:05:04.509Z,997.78
2018-11-04T01:06:04.494Z,997.74
2018-11-04T01:07:04.491Z,997.74
2018-11-04T01:08:04.480Z,997.71
2018-11-04T01:09:04.538Z,997.69
2018-11-04T01:10:04.461Z,997.69
2018-11-04T01:11:04.451Z,997.66
2018-11-04T01:12:04.447Z,997.62
2018-11-04T01:13:04.434Z,997.62
2018-11-04T01:14:04.424Z,997.61
2018-11-04T01:15:04.419Z,997.59
2018-11-04T01:16:04.414Z,997.56
2018-11-04T01:17:04.395Z,997.53
2018-11-04T01:18:04.387Z,997.52
2018-11-04T01:19:04.375Z,997.50
2018-11-04T01:20:04.365Z,997.50
2018-11-04T01:21:04.427Z,997.45
2018-11-04T01:22:04.349Z,997.48
2018-11-04T01:23:04.342Z,997.42
2018-11-04T01:24:04.331Z,997.46
2018-11-04T01:25:04.321Z,997.43
2018-11-04T01:26:04.314Z,997.44
2018-11-04T01:27:04.303Z,997.44
2018-11-04T01:28:04.298Z,997.38
2018-11-04T01:29:04.282Z,997.40
2018-11-04T01:30:04.289Z,997.32
2018-11-04T01:31:04.272Z,997.29
2018-11-04T01:32:04.255Z,997.26
2018-11-04T01:33:04.247Z,997.27
2018-11-04T01:34:04.237Z,997.25
2018-11-04T01:35:04.228Z,997.27
2018-11-04T01:36:04.222Z,997.25
2018-11-04T01:37:04.221Z,997.23
2018-11-04T01:38:04.199Z,997.25
2018-11-04T01:39:04.193Z,997.23
2018-11-04T01:40:04.179Z,997.23
2018-11-04T01:41:04.175Z,997.21
2018-11-04T01:42:04.168Z,997.20
2018-11-04T01:43:04.155Z,997.14
2018-11-04T01:44:04.144Z,997.11
2018-11-04T01:45:04.136Z,997.13
2018-11-04T01:46:04.132Z,997.08
2018-11-04T01:47:04.117Z,997.09
2018-11-04T01:48:04.108Z,997.06
2018-11-04T01:49:04.098Z,997.02
2018-11-04T01:50:04.089Z,996.99
2018-11-04T01:51:04.079Z,996.98
2018-11-04T01:52:04.072Z,997.02
2018-11-04T01:53:04.062Z,996.99
2018-11-04T01:54:04.049Z,996.92
2018-11-04T01:55:04.040Z,996.91
2018-11-04T01:56:04.032Z,996.92
2018-11-04T01:57:04.025Z,996.89
2018-11-04T01:58:04.014Z,996.89
2018-11-04T01:59:04.002Z,996.88
2018-11-04T02:00:03.997Z,996.83
2018-11-04T02:01:03.984Z,996.85
2018-11-04T02:02:03.972Z,996.80
2018-11-04T02:03:03.964Z,996.80
2018-11-04T02:04:03.961Z,996.74
2018-11-04T02:05:03.946Z,996.76
2018-11-04T02:06:03.939Z,996.73
2018-11-04T02:07:03.930Z,996.71
2018-11-04T02:08:03.920Z,996.73
2018-11-04T02:09:03.914Z,996.72
2018-11-04T02:10:03.909Z,996.69
2018-11-04T02:11:03.897Z,996.67
2018-11-04T02:12:03.883Z,996.63
2018-11-04T02:13:03.875Z,996.61
2018-11-04T02:14:03.865Z,996.61
2018-11-04T02:15:03.862Z,996.54
2018-11-04T02:16:03.845Z,996.58
2018-11-04T02:17:03.842Z,996.58
2018-11-04T02:18:03.824Z,996.57
2018-11-04T02:19:03.815Z,996.57
2018-11-04T02:20:03.807Z,996.57
2018-11-04T02:21:03.796Z,996.52
2018-11-04T02:22:03.791Z,996.51
2018-11-04T02:23:03.773Z,996.50
2018-11-04T02:24:03.769Z,996.53
2018-11-04T02:25:03.763Z,996.47
2018-11-04T02:26:03.751Z,996.47
2018-11-04T02:27:03.744Z,996.50
2018-11-04T02:28:03.733Z,996.46
2018-11-04T02:29:03.721Z,996.44
2018-11-04T02:30:03.715Z,996.44
2018-11-04T02:31:03.712Z,996.46
2018-11-04T02:32:03.696Z,996.41
2018-11-04T02:33:03.686Z,996.41
2018-11-04T02:34:03.675Z,996.40
2018-11-04T02:35:03.667Z,996.42
2018-11-04T02:36:03.658Z,996.36
2018-11-04T02:37:03.650Z,996.36
2018-11-04T02:38:03.638Z,996.33
2018-11-04T02:39:03.627Z,996.36
2018-11-04T02:40:03.620Z,996.30
2018-11-04T02:41:03.628Z,996.31
2018-11-04T02:42:03.601Z,996.34
2018-11-04T02:43:03.600Z,996.29
2018-11-04T02:44:03.587Z,996.32
2018-11-04T02:45:03.575Z,996.36
2018-11-04T02:46:03.559Z,996.31
2018-11-04T02:47:03.607Z,996.33
2018-11-04T02:48:03.549Z,996.30
2018-11-04T02:49:03.539Z,996.33
2018-11-04T02:50:03.526Z,996.38
2018-11-04T02:51:03.517Z,996.33
2018-11-04T02:52:03.509Z,996.35
2018-11-04T02:53:03.499Z,996.35
2018-11-04T02:54:03.491Z,996.35
2018-11-04T02:55:03.480Z,996.34
2018-11-04T02:56:03.471Z,996.35
2018-11-04T02:57:03.459Z,996.35
2018-11-04T02:58:03.455Z,996.33
2018-11-04T02:59:03.439Z,996.33
2018-11-04T03:00:03.435Z,996.31
2018-11-04T03:01:03.423Z,996.31
2018-11-04T03:02:03.480Z,996.29
2018-11-04T03:03:03.409Z,996.27
2018-11-04T03:04:03.396Z,996.29
2018-11-04T03:05:03.387Z,996.29
2018-11-04T03:06:03.378Z,996.29
2018-11-04T03:07:03.369Z,996.29
2018-11-04T03:08:03.362Z,996.27
2018-11-04T03:09:03.348Z,996.20
2018-11-04T03:10:03.339Z,996.18
2018-11-04T03:11:03.346Z,996.22
2018-11-04T03:12:03.318Z,996.13
2018-11-04T03:13:03.309Z,996.12
2018-11-04T03:14:03.297Z,996.12
2018-11-04T03:15:03.305Z,996.15
2018-11-04T03:16:03.289Z,996.18
2018-11-04T03:17:03.276Z,996.16
2018-11-04T03:18:03.262Z,996.16
2018-11-04T03:19:03.264Z,996.16
2018-11-04T03:20:03.248Z,996.17
2018-11-04T03:21:03.236Z,996.18
2018-11-04T03:22:03.226Z,996.18
2018-11-04T03:23:03.214Z,996.17
2018-11-04T03:24:03.200Z,996.19
2018-11-04T03:25:03.204Z,996.20
2018-11-04T03:26:03.192Z,996.20
2018-11-04T03:27:03.179Z,996.19
2018-11-04T03:28:03.169Z,996.21
2018-11-04T03:29:03.160Z,996.15
2018-11-04T03:30:03.155Z,996.18
2018-11-04T03:31:03.144Z,996.21
2018-11-04T03:32:03.137Z,996.21
2018-11-04T03:33:03.121Z,996.17
2018-11-04T03:34:03.114Z,996.18
2018-11-04T03:35:03.105Z,996.14
2018-11-04T03:36:03.098Z,996.11
2018-11-04T03:37:03.090Z,996.09
2018-11-04T03:38:03.076Z,996.12
2018-11-04T03:39:03.064Z,996.10
2018-11-04T03:40:03.054Z,996.10
2018-11-04T03:41:03.046Z,996.08
2018-11-04T03:42:03.046Z,996.07
2018-11-04T03:43:03.031Z,996.04
2018-11-04T03:44:03.019Z,996.04
2018-11-04T03:45:03.009Z,996.07
2018-11-04T03:46:02.997Z,996.06
2018-11-04T03:47:02.995Z,995.98
2018-11-04T03:48:02.980Z,996.03
2018-11-04T03:49:02.972Z,995.97
2018-11-04T03:50:02.958Z,995.95
2018-11-04T03:51:02.950Z,995.90
2018-11-04T03:52:02.941Z,995.90
2018-11-04T03:53:02.935Z,995.89
2018-11-04T03:54:02.928Z,995.92
2018-11-04T03:55:02.916Z,995.85
2018-11-04T03:56:02.902Z,995.85
2018-11-04T03:57:02.900Z,995.87
2018-11-04T03:58:02.894Z,995.86
2018-11-04T03:59:02.883Z,995.84
2018-11-04T04:00:02.867Z,995.87
2018-11-04T04:01:02.860Z,995.83
2018-11-04T04:02:02.849Z,995.90
2018-11-04T04:03:02.840Z,995.87
2018-11-04T04:04:02.829Z,995.85
2018-11-04T04:05:02.818Z,995.85
2018-11-04T04:06:02.809Z,995.88
2018-11-04T04:07:02.813Z,995.85
2018-11-04T04:08:02.792Z,995.86
2018-11-04T04:09:02.777Z,995.84
2018-11-04T04:10:02.775Z,995.87
2018-11-04T04:11:02.763Z,995.83
2018-11-04T04:12:02.757Z,995.85
2018-11-04T04:13:02.747Z,995.84
2018-11-04T04:14:02.735Z,995.84
2018-11-04T04:15:02.722Z,995.82
2018-11-04T04:16:02.731Z,995.82
2018-11-04T04:17:02.708Z,995.84
2018-11-04T04:18:02.698Z,995.83
2018-11-04T04:19:02.688Z,995.81
2018-11-04T04:20:02.683Z,995.81
2018-11-04T04:21:02.672Z,995.83
2018-11-04T04:22:02.658Z,995.84
2018-11-04T04:23:02.663Z,995.87
2018-11-04T04:24:02.647Z,995.82
2018-11-04T04:25:02.634Z,995.86
2018-11-04T04:26:02.626Z,995.85
2018-11-04T04:27:02.615Z,995.85
2018-11-04T04:28:02.617Z,995.89
2018-11-04T04:29:02.596Z,995.84
2018-11-04T04:30:02.587Z,995.83
2018-11-04T04:31:02.575Z,995.79
2018-11-04T04:32:02.567Z,995.81
2018-11-04T04:33:02.556Z,995.79
2018-11-04T04:34:02.548Z,995.81
2018-11-04T04:35:02.539Z,995.75
2018-11-04T04:36:02.529Z,995.78
2018-11-04T04:37:02.524Z,995.75
2018-11-04T04:38:02.513Z,995.73
2018-11-04T04:39:02.501Z,995.75
2018-11-04T04:40:02.491Z,995.71
2018-11-04T04:41:02.483Z,995.68
2018-11-04T04:42:02.472Z,995.68
2018-11-04T04:43:02.464Z,995.70
2018-11-04T04:44:02.458Z,995.72
2018-11-04T04:45:02.450Z,995.77
2018-11-04T04:46:02.434Z,995.71
2018-11-04T04:47:02.423Z,995.72
2018-11-04T04:48:02.416Z,995.71
2018-11-04T04:49:02.415Z,995.70
2018-11-04T04:50:02.398Z,995.73
2018-11-04T04:51:02.402Z,995.63
2018-11-04T04:52:02.382Z,995.65
2018-11-04T04:53:02.369Z,995.63
2018-11-04T04:54:02.364Z,995.63
2018-11-04T04:55:02.353Z,995.64
2018-11-04T04:56:02.358Z,995.64
2018-11-04T04:57:02.340Z,995.65
2018-11-04T04:58:02.322Z,995.62
2018-11-04T04:59:02.320Z,995.64
2018-11-04T05:00:02.314Z,995.62
2018-11-04T05:01:02.298Z,995.61
2018-11-04T05:02:02.286Z,995.59
2018-11-04T05:03:02.279Z,995.62
2018-11-04T05:04:02.268Z,995.62
2018-11-04T05:05:02.268Z,995.61
2018-11-04T05:06:02.254Z,995.62
2018-11-04T05:07:02.252Z,995.62
2018-11-04T05:08:02.228Z,995.60
2018-11-04T05:09:02.224Z,995.60
2018-11-04T05:10:02.217Z,995.61
2018-11-04T05:11:02.206Z,995.66
2018-11-04T05:12:02.198Z,995.64
2018-11-04T05:13:02.184Z,995.65
2018-11-04T05:14:02.178Z,995.65
2018-11-04T05:15:02.169Z,995.64
2018-11-04T05:16:02.159Z,995.62
2018-11-04T05:17:02.156Z,995.64
2018-11-04T05:18:02.141Z,995.62
2018-11-04T05:19:02.130Z,995.61
2018-11-04T05:20:02.124Z,995.59
2018-11-04T05:21:02.118Z,995.56
2018-11-04T05:22:02.104Z,995.55
2018-11-04T05:23:02.092Z,995.56
2018-11-04T05:24:02.095Z,995.52
2018-11-04T05:25:02.083Z,995.54
2018-11-04T05:26:02.067Z,995.53
2018-11-04T05:27:02.058Z,995.53
2018-11-04T05:28:02.047Z,995.54
2018-11-04T05:29:02.043Z,995.50
2018-11-04T05:30:02.030Z,995.51
2018-11-04T05:31:02.022Z,995.50
2018-11-04T05:32:02.008Z,995.48
2018-11-04T05:33:02.009Z,995.45
2018-11-04T05:34:01.990Z,995.48
2018-11-04T05:35:01.981Z,995.47
2018-11-04T05:36:01.977Z,995.46
2018-11-04T05:37:01.961Z,995.46
2018-11-04T05:38:01.956Z,995.44
2018-11-04T05:39:01.939Z,995.46
2018-11-04T05:40:01.936Z,995.48
2018-11-04T05:41:01.928Z,995.45
2018-11-04T05:42:01.915Z,995.42
2018-11-04T05:43:01.903Z,995.46
2018-11-04T05:44:01.898Z,995.44
2018-11-04T05:45:01.890Z,995.44
2018-11-04T05:46:01.879Z,995.45
2018-11-04T05:47:01.887Z,995.47
2018-11-04T05:48:01.866Z,995.48
2018-11-04T05:49:01.855Z,995.43
2018-11-04T05:50:01.850Z,995.46
2018-11-04T05:51:01.829Z,995.46
2018-11-04T05:52:01.826Z,995.46
2018-11-04T05:53:01.815Z,995.45
2018-11-04T05:54:01.807Z,995.47
2018-11-04T05:55:01.797Z,995.47
2018-11-04T05:56:01.827Z,995.47
2018-11-04T05:57:01.779Z,995.49
2018-11-04T05:58:01.767Z,995.50
2018-11-04T05:59:01.758Z,995.49
2018-11-04T06:00:01.749Z,995.45
2018-11-04T06:01:01.747Z,995.51
2018-11-04T06:02:01.730Z,995.47
2018-11-04T06:03:01.731Z,995.45
2018-11-04T06:04:01.712Z,995.44
2018-11-04T06:05:01.710Z,995.45
2018-11-04T06:06:01.697Z,995.46
2018-11-04T06:07:01.687Z,995.45
2018-11-04T06:08:01.681Z,995.49
2018-11-04T06:09:01.672Z,995.47
2018-11-04T06:10:01.655Z,995.48
2018-11-04T06:11:01.654Z,995.52
2018-11-04T06:12:01.638Z,995.49
2018-11-04T06:13:01.633Z,995.46
2018-11-04T06:14:01.636Z,995.53
2018-11-04T06:15:01.613Z,995.56
2018-11-04T06:16:01.601Z,995.47
2018-11-04T06:17:01.591Z,995.48
2018-11-04T06:18:01.581Z,995.48
2018-11-04T06:19:01.576Z,995.51
2018-11-04T06:20:01.565Z,995.52
2018-11-04T06:21:01.553Z,995.53
2018-11-04T06:22:01.543Z,995.54
2018-11-04T06:23:01.538Z,995.52
2018-11-04T06:24:01.538Z,995.48
2018-11-04T06:25:01.519Z,995.47
2018-11-04T06:26:01.507Z,995.47
2018-11-04T06:27:01.496Z,995.50
2018-11-04T06:28:01.491Z,995.55
2018-11-04T06:29:01.480Z,995.55
2018-11-04T06:30:01.475Z,995.50
2018-11-04T06:31:01.462Z,995.54
2018-11-04T06:32:01.450Z,995.57
2018-11-04T06:33:01.441Z,995.52
2018-11-04T06:34:01.438Z,995.52
2018-11-04T06:35:01.425Z,995.56
2018-11-04T06:36:01.415Z,995.54
2018-11-04T06:37:01.405Z,995.54
2018-11-04T06:38:01.394Z,995.54
2018-11-04T06:39:01.383Z,995.56
2018-11-04T06:40:01.380Z,995.54
2018-11-04T06:41:01.491Z,995.55
2018-11-04T06:42:01.357Z,995.52
2018-11-04T06:43:01.351Z,995.52
2018-11-04T06:44:01.343Z,995.49
2018-11-04T06:45:01.338Z,995.48
2018-11-04T06:46:01.320Z,995.49
2018-11-04T06:47:01.425Z,995.49
2018-11-04T06:48:01.300Z,995.46
2018-11-04T06:49:01.293Z,995.49
2018-11-04T06:50:01.284Z,995.46
2018-11-04T06:51:01.275Z,995.48
2018-11-04T06:52:01.268Z,995.44
2018-11-04T06:53:01.264Z,995.43
2018-11-04T06:54:01.245Z,995.46
2018-11-04T06:55:01.247Z,995.38
2018-11-04T06:56:01.229Z,995.38
2018-11-04T06:57:01.221Z,995.37
2018-11-04T06:58:01.211Z,995.38
2018-11-04T06:59:04.118Z,995.39
2018-11-04T07:00:01.282Z,995.38
2018-11-04T07:01:01.186Z,995.37
2018-11-04T07:02:01.176Z,995.37
2018-11-04T07:03:01.160Z,995.38
2018-11-04T07:04:01.158Z,995.41
2018-11-04T07:05:01.146Z,995.34
2018-11-04T07:06:01.144Z,995.40
2018-11-04T07:07:01.123Z,995.39
2018-11-04T07:08:01.119Z,995.35
2018-11-04T07:09:01.180Z,995.29
2018-11-04T07:10:01.100Z,995.31
2018-11-04T07:11:01.090Z,995.29
2018-11-04T07:12:01.083Z,995.30
2018-11-04T07:13:01.071Z,995.32
2018-11-04T07:14:01.057Z,995.29
2018-11-04T07:15:01.060Z,995.26
2018-11-04T07:16:01.045Z,995.23
2018-11-04T07:17:01.043Z,995.16
2018-11-04T07:18:01.027Z,995.17
2018-11-04T07:19:01.019Z,995.22
2018-11-04T07:20:01.045Z,995.18
2018-11-04T07:21:00.990Z,995.18
2018-11-04T07:22:00.988Z,995.19
2018-11-04T07:23:00.983Z,995.20
2018-11-04T07:24:00.976Z,995.19
2018-11-04T07:25:00.966Z,995.21
2018-11-04T07:26:00.956Z,995.22
2018-11-04T07:27:00.952Z,995.24
2018-11-04T07:28:00.930Z,995.21
2018-11-04T07:29:00.921Z,995.23
2018-11-04T07:30:00.915Z,995.23
2018-11-04T07:31:00.908Z,995.25
2018-11-04T07:32:00.960Z,995.23
2018-11-04T07:33:00.886Z,995.24
2018-11-04T07:34:00.875Z,995.26
2018-11-04T07:35:00.866Z,995.27
2018-11-04T07:36:00.859Z,995.24
2018-11-04T07:37:00.852Z,995.23
2018-11-04T07:38:00.846Z,995.25
2018-11-04T07:39:00.830Z,995.24
2018-11-04T07:40:00.830Z,995.26
2018-11-04T07:41:00.816Z,995.26
2018-11-04T07:42:00.809Z,995.27
2018-11-04T07:43:00.798Z,995.30
2018-11-04T07:44:00.785Z,995.34
2018-11-04T07:45:00.778Z,995.34
2018-11-04T07:46:00.764Z,995.33
2018-11-04T07:47:00.765Z,995.33
2018-11-04T07:48:00.752Z,995.36
2018-11-04T07:49:00.739Z,995.38
2018-11-04T07:50:00.727Z,995.40
2018-11-04T07:51:00.719Z,995.38
2018-11-04T07:52:00.711Z,995.41
2018-11-04T07:53:00.700Z,995.42
2018-11-04T07:54:00.688Z,995.40
2018-11-04T07:55:00.679Z,995.37
2018-11-04T07:56:00.673Z,995.36
2018-11-04T07:57:00.716Z,995.36
2018-11-04T07:58:00.653Z,995.38
2018-11-04T07:59:00.654Z,995.34
2018-11-04T08:00:00.635Z,995.31
2018-11-04T08:01:00.709Z,995.33
2018-11-04T08:02:00.617Z,995.31
2018-11-04T08:03:00.608Z,995.34
2018-11-04T08:04:00.654Z,995.36
2018-11-04T08:05:00.590Z,995.36
2018-11-04T08:06:00.575Z,995.39
2018-11-04T08:07:00.566Z,995.40
2018-11-04T08:08:00.558Z,995.44
2018-11-04T08:09:00.577Z,995.38
2018-11-04T08:10:00.541Z,995.40
2018-11-04T08:11:00.532Z,995.38
2018-11-04T08:12:00.524Z,995.37
2018-11-04T08:13:00.512Z,995.39
2018-11-04T08:14:00.504Z,995.40
2018-11-04T08:15:00.496Z,995.36
2018-11-04T08:16:00.513Z,995.39
2018-11-04T08:17:00.486Z,995.35
2018-11-04T08:18:00.465Z,995.38
2018-11-04T08:19:00.470Z,995.42
2018-11-04T08:20:00.458Z,995.36
2018-11-04T08:21:00.440Z,995.36
2018-11-04T08:22:00.430Z,995.32
2018-11-04T08:23:00.424Z,995.32
2018-11-04T08:24:00.412Z,995.35
2018-11-04T08:25:00.404Z,995.31
2018-11-04T08:26:00.394Z,995.32
2018-11-04T08:27:00.387Z,995.33
2018-11-04T08:28:00.370Z,995.31
2018-11-04T08:29:00.364Z,995.29
2018-11-04T08:30:00.361Z,995.32
2018-11-04T08:31:00.347Z,995.28
2018-11-04T08:32:00.339Z,995.27
2018-11-04T08:33:00.328Z,995.27
2018-11-04T08:34:00.322Z,995.29
2018-11-04T08:35:00.314Z,995.31
2018-11-04T08:36:00.305Z,995.27
2018-11-04T08:37:00.295Z,995.24
2018-11-04T08:38:00.287Z,995.22
2018-11-04T08:39:00.270Z,995.24
2018-11-04T08:40:00.344Z,995.22
2018-11-04T08:41:00.265Z,995.28
2018-11-04T08:42:00.244Z,995.25
2018-11-04T08:43:00.236Z,995.26
2018-11-04T08:44:00.226Z,995.23
2018-11-04T08:45:00.220Z,995.24
2018-11-04T08:46:00.209Z,995.22
2018-11-04T08:47:00.199Z,995.24
2018-11-04T08:48:00.188Z,995.30
2018-11-04T08:49:00.182Z,995.25
2018-11-04T08:50:00.169Z,995.23
2018-11-04T08:51:00.164Z,995.20
2018-11-04T08:52:00.154Z,995.23
2018-11-04T08:53:00.150Z,995.18
2018-11-04T08:54:00.134Z,995.21
2018-11-04T08:55:00.125Z,995.16
2018-11-04T08:56:00.117Z,995.14
2018-11-04T08:57:00.111Z,995.10
2018-11-04T08:58:00.108Z,995.11
2018-11-04T08:59:00.089Z,995.13
2018-11-04T09:00:00.088Z,995.13
2018-11-04T09:01:00.076Z,995.08
2018-11-04T09:02:00.071Z,995.11
2018-11-04T09:03:00.051Z,995.12
2018-11-04T09:04:00.054Z,995.11
2018-11-04T09:05:00.034Z,995.11
2018-11-04T09:06:00.020Z,995.10
2018-11-04T09:07:00.017Z,995.11
2018-11-04T09:08:00.008Z,995.05
2018-11-04T09:08:59.995Z,995.09
2018-11-04T09:09:59.984Z,995.07
2018-11-04T09:10:59.976Z,995.06
2018-11-04T09:11:59.975Z,995.08
2018-11-04T09:12:59.965Z,995.06
2018-11-04T09:13:59.957Z,995.01
2018-11-04T09:14:59.940Z,995.01
2018-11-04T09:15:59.930Z,994.96
2018-11-04T09:16:59.930Z,994.97
2018-11-04T09:17:59.917Z,994.99
2018-11-04T09:18:59.906Z,995.01
2018-11-04T09:19:59.895Z,994.96
2018-11-04T09:20:59.895Z,994.96
2018-11-04T09:22:00.037Z,995.00
2018-11-04T09:22:59.871Z,994.95
2018-11-04T09:23:59.858Z,994.98
2018-11-04T09:24:59.848Z,995.01
2018-11-04T09:25:59.840Z,995.02
2018-11-04T09:26:59.832Z,995.03
2018-11-04T09:27:59.822Z,995.01
2018-11-04T09:28:59.859Z,995.01
2018-11-04T09:29:59.800Z,994.99
2018-11-04T09:30:59.795Z,995.02
2018-11-04T09:31:59.792Z,994.99
2018-11-04T09:32:59.778Z,995.03
2018-11-04T09:33:59.772Z,995.05
2018-11-04T09:34:59.847Z,995.07
2018-11-04T09:35:59.882Z,995.05
2018-11-04T09:36:59.739Z,995.02
2018-11-04T09:37:59.729Z,995.00
2018-11-04T09:38:59.719Z,994.94
2018-11-04T09:39:59.712Z,994.90
2018-11-04T09:40:59.695Z,994.88
2018-11-04T09:41:59.688Z,994.90
2018-11-04T09:42:59.685Z,994.91
2018-11-04T09:43:59.678Z,994.89
2018-11-04T09:44:59.675Z,994.90
2018-11-04T09:45:59.664Z,994.88
2018-11-04T09:46:59.648Z,994.82
2018-11-04T09:47:59.636Z,994.84
2018-11-04T09:48:59.632Z,994.84
2018-11-04T09:49:59.684Z,994.83
2018-11-04T09:50:59.611Z,994.82
2018-11-04T09:51:59.599Z,994.80
2018-11-04T09:52:59.590Z,994.78
2018-11-04T09:53:59.576Z,994.78
2018-11-04T09:54:59.580Z,994.77
2018-11-04T09:55:59.560Z,994.82
2018-11-04T09:56:59.553Z,994.84
2018-11-04T09:57:59.541Z,994.78
2018-11-04T09:58:59.533Z,994.79
2018-11-04T09:59:59.522Z,994.80
2018-11-04T10:00:59.524Z,994.81
2018-11-04T10:01:59.506Z,994.79
2018-11-04T10:02:59.495Z,994.75
2018-11-04T10:03:59.489Z,994.75
2018-11-04T10:04:59.480Z,994.72
2018-11-04T10:05:59.467Z,994.69
2018-11-04T10:06:59.516Z,994.72
2018-11-04T10:07:59.464Z,994.68
2018-11-04T10:08:59.441Z,994.65
2018-11-04T10:09:59.434Z,994.62
2018-11-04T10:10:59.426Z,994.65
2018-11-04T10:11:59.418Z,994.58
2018-11-04T10:12:59.404Z,994.62
2018-11-04T10:13:59.394Z,994.63
2018-11-04T10:14:59.385Z,994.59
2018-11-04T10:15:59.379Z,994.61
2018-11-04T10:16:59.381Z,994.58
2018-11-04T10:17:59.355Z,994.58
2018-11-04T10:18:59.522Z,994.60
2018-11-04T10:19:59.604Z,994.59
2018-11-04T10:20:59.802Z,994.52
2018-11-04T10:21:59.322Z,994.49
2018-11-04T10:22:59.312Z,994.49
2018-11-04T10:23:59.308Z,994.46
2018-11-04T10:24:59.291Z,994.47
2018-11-04T10:25:59.283Z,994.48
2018-11-04T10:26:59.281Z,994.49
2018-11-04T10:27:59.267Z,994.41
2018-11-04T10:28:59.257Z,994.43
2018-11-04T10:29:59.367Z,994.38
2018-11-04T10:30:59.237Z,994.37
2018-11-04T10:31:59.228Z,994.35
2018-11-04T10:32:59.220Z,994.36
2018-11-04T10:33:59.218Z,994.42
2018-11-04T10:34:59.200Z,994.42
2018-11-04T10:35:59.192Z,994.39
2018-11-04T10:36:59.221Z,994.37
2018-11-04T10:37:59.185Z,994.37
2018-11-04T10:38:59.162Z,994.37
2018-11-04T10:39:59.154Z,994.38
2018-11-04T10:40:59.155Z,994.41
2018-11-04T10:41:59.138Z,994.41
2018-11-04T10:42:59.135Z,994.39
2018-11-04T10:43:59.123Z,994.35
2018-11-04T10:44:59.109Z,994.37
2018-11-04T10:45:59.103Z,994.28
2018-11-04T10:46:59.103Z,994.31
2018-11-04T10:47:59.087Z,994.32
2018-11-04T10:48:59.074Z,994.29
2018-11-04T10:49:59.146Z,994.33
2018-11-04T10:50:59.057Z,994.30
2018-11-04T10:51:59.047Z,994.31
2018-11-04T10:52:59.039Z,994.27
2018-11-04T10:53:59.075Z,994.30
2018-11-04T10:54:59.016Z,994.30
2018-11-04T10:55:59.012Z,994.28
2018-11-04T10:56:59.001Z,994.28
2018-11-04T10:57:59.000Z,994.25
2018-11-04T10:58:58.983Z,994.18
2018-11-04T10:59:58.966Z,994.16
2018-11-04T11:00:58.964Z,994.20
2018-11-04T11:01:58.956Z,994.19
2018-11-04T11:02:58.947Z,994.13
2018-11-04T11:03:58.935Z,994.06
2018-11-04T11:04:58.925Z,994.03
2018-11-04T11:05:58.941Z,993.99
2018-11-04T11:06:58.904Z,993.92
2018-11-04T11:07:58.904Z,993.93
2018-11-04T11:08:58.887Z,993.87
2018-11-04T11:09:58.880Z,993.91
2018-11-04T11:10:58.911Z,993.85
2018-11-04T11:11:58.867Z,993.82
2018-11-04T11:12:58.853Z,993.83
2018-11-04T11:13:58.845Z,993.80
2018-11-04T11:14:58.839Z,993.81
2018-11-04T11:15:58.829Z,993.75
2018-11-04T11:16:58.816Z,993.73
2018-11-04T11:17:58.811Z,993.67
2018-11-04T11:18:58.795Z,993.65
2018-11-04T11:19:58.787Z,993.62
2018-11-04T11:20:58.806Z,993.63
2018-11-04T11:21:58.773Z,993.62
2018-11-04T11:22:58.999Z,993.66
2018-11-04T11:23:58.750Z,993.63
2018-11-04T11:24:58.744Z,993.63
2018-11-04T11:25:58.744Z,993.61
2018-11-04T11:26:58.723Z,993.57
2018-11-04T11:27:58.718Z,993.52
2018-11-04T11:28:58.701Z,993.53
2018-11-04T11:29:58.747Z,993.46
2018-11-04T11:30:58.700Z,993.51
2018-11-04T11:31:58.678Z,993.45
2018-11-04T11:32:58.672Z,993.49
2018-11-04T11:33:58.676Z,993.43
2018-11-04T11:34:58.648Z,993.40
2018-11-04T11:35:58.654Z,993.45
2018-11-04T11:36:58.633Z,993.43
2018-11-04T11:37:58.796Z,993.40
2018-11-04T11:38:58.609Z,993.38
2018-11-04T11:39:58.603Z,993.36
2018-11-04T11:40:58.598Z,993.28
2018-11-04T11:41:58.583Z,993.22
2018-11-04T11:42:58.579Z,993.18
2018-11-04T11:43:58.567Z,993.17
2018-11-04T11:44:58.659Z,993.15
2018-11-04T11:45:58.551Z,993.16
2018-11-04T11:46:58.544Z,993.17
2018-11-04T11:47:58.536Z,993.15
2018-11-04T11:48:58.516Z,993.13
2018-11-04T11:49:58.514Z,993.11
2018-11-04T11:50:58.510Z,993.12
2018-11-04T11:51:58.498Z,993.12
2018-11-04T11:52:58.495Z,993.10
2018-11-04T11:53:58.476Z,993.11
2018-11-04T11:54:58.465Z,993.08
2018-11-04T11:55:58.457Z,993.03
2018-11-04T11:56:58.451Z,993.00
2018-11-04T11:57:58.438Z,992.97
2018-11-04T11:58:58.428Z,992.97
2018-11-04T11:59:58.419Z,993.01
2018-11-04T12:00:58.416Z,992.97
2018-11-04T12:01:58.405Z,992.98
2018-11-04T12:02:58.396Z,992.98
2018-11-04T12:03:58.385Z,992.94
2018-11-04T12:04:58.374Z,992.93
2018-11-04T12:05:58.367Z,992.90
2018-11-04T12:06:58.351Z,992.96
2018-11-04T12:07:58.352Z,992.92
2018-11-04T12:08:58.337Z,992.97
2018-11-04T12:09:58.333Z,992.96
2018-11-04T12:10:58.333Z,992.98
2018-11-04T12:11:58.304Z,992.97
2018-11-04T12:12:58.305Z,992.88
2018-11-04T12:13:58.303Z,992.87
2018-11-04T12:14:58.284Z,992.80
2018-11-04T12:15:58.274Z,992.80
2018-11-04T12:16:58.307Z,992.81
2018-11-04T12:17:58.420Z,992.74
2018-11-04T12:18:58.250Z,992.79
2018-11-04T12:19:58.241Z,992.84
2018-11-04T12:20:58.229Z,992.82
2018-11-04T12:21:58.221Z,992.83
2018-11-04T12:22:58.214Z,992.85
2018-11-04T12:23:58.201Z,992.90
2018-11-04T12:24:58.190Z,992.91
2018-11-04T12:25:58.186Z,992.92
2018-11-04T12:26:58.175Z,992.87
2018-11-04T12:27:58.166Z,992.96